Time;durP1;ratioP1;P1;durP2;ratioP2;P2;SDS_P1;SDS_P2;PMS_P1;PMS_P2;Temp;Humidity;BMP_temperature;BMP_pressure;BME280_temperature;BME280_humidity;BME280_pressure;Samples;Min_cycle;Max_cycle;Signal;HPM_P1;HPM_P2
2023/08/15 00:01:07;;;;;;;3.40;1.00;;;;;;;20.17;69.29;101297.66;5016948;28;99148;-26
2023/08/15 00:03:32;;;;;;;2.72;0.80;;;;;;;20.15;69.04;101289.53;5017223;28;97042;-27
2023/08/15 00:05:58;;;;;;;2.08;0.75;;;;;;;20.15;69.07;101306.03;5017197;28;96809;-27
2023/08/15 00:08:23;;;;;;;2.22;0.73;;;;;;;20.18;69.00;101301.25;5014924;28;98088;-26
2023/08/15 00:10:49;;;;;;;3.42;0.82;;;;;;;20.14;69.05;101292.41;5016701;28;97282;-27
2023/08/15 00:13:14;;;;;;;3.88;0.80;;;;;;;20.13;69.30;101290.69;5017001;28;96413;-27
2023/08/15 00:15:40;;;;;;;2.53;0.82;;;;;;;20.10;69.24;101283.59;5017108;28;96794;-26
2023/08/15 00:18:06;;;;;;;5.32;1.10;;;;;;;20.15;68.98;101299.66;5015140;28;101066;-26
2023/08/15 00:20:32;;;;;;;2.05;0.70;;;;;;;20.16;69.16;101290.38;5016543;28;97925;-26
2023/08/15 00:22:57;;;;;;;2.25;0.82;;;;;;;20.13;69.38;101286.06;5017034;28;96512;-26
2023/08/15 00:25:22;;;;;;;2.92;0.70;;;;;;;20.17;69.42;101294.91;5017365;28;97069;-26
2023/08/15 00:27:48;;;;;;;6.60;0.55;;;;;;;20.12;69.64;101299.97;5016485;28;97903;-27
2023/08/15 00:30:13;;;;;;;3.55;0.88;;;;;;;20.14;69.68;101307.06;5016326;28;97315;-27
2023/08/15 00:32:38;;;;;;;3.60;1.00;;;;;;;20.21;70.07;101310.06;5016379;28;96661;-27
2023/08/15 00:35:04;;;;;;;1.77;0.73;;;;;;;20.12;70.21;101305.47;5016567;28;97613;-26
2023/08/15 00:37:31;;;;;;;1.98;0.90;;;;;;;20.13;70.48;101307.19;5014410;28;102508;-27
2023/08/15 00:39:57;;;;;;;4.97;0.75;;;;;;;20.10;70.00;101297.34;5014491;28;100927;-26
2023/08/15 00:42:22;;;;;;;3.78;0.82;;;;;;;20.12;70.59;101308.22;5016694;28;96904;-27
2023/08/15 00:44:47;;;;;;;2.33;0.80;;;;;;;20.18;70.75;101317.75;5016501;28;96861;-26
2023/08/15 00:47:13;;;;;;;2.45;0.82;;;;;;;20.18;70.28;101315.00;5016000;28;99257;-27
2023/08/15 00:49:43;;;;;;;2.42;0.80;;;;;;;20.18;70.80;101318.63;5016592;28;97177;-27
2023/08/15 00:52:09;;;;;;;4.45;0.88;;;;;;;20.13;71.24;101315.44;5014940;28;96716;-30
2023/08/15 00:54:35;;;;;;;1.95;0.63;;;;;;;20.15;71.29;101316.16;5014775;28;96880;-26
2023/08/15 00:57:05;;;;;;;6.05;1.20;;;;;;;20.10;71.45;101315.75;5015662;28;97896;-27
2023/08/15 00:59:30;;;;;;;2.45;0.80;;;;;;;20.07;71.71;101329.75;5014429;28;101019;-27
2023/08/15 01:01:58;;;;;;;5.03;0.70;;;;;;;20.05;71.90;101331.81;5016156;28;96616;-28
2023/08/15 01:04:23;;;;;;;4.28;1.00;;;;;;;20.05;71.90;101312.56;5014598;28;96805;-26
2023/08/15 01:06:49;;;;;;;0.70;0.45;;;;;;;20.05;71.44;101309.81;5015392;28;97899;-27
2023/08/15 01:09:15;;;;;;;2.95;1.02;;;;;;;20.09;72.39;101316.75;5015407;28;99041;-26
2023/08/15 01:11:55;;;;;;;3.03;1.00;;;;;;;20.07;72.16;101313.25;5016117;28;96642;-27
2023/08/15 01:14:25;;;;;;;2.83;0.93;;;;;;;20.05;72.82;101321.69;5015092;28;96665;-27
2023/08/15 01:16:51;;;;;;;6.78;1.30;;;;;;;20.02;72.69;101299.09;5014142;28;100875;-29
2023/08/15 01:19:42;;;;;;;4.05;0.93;;;;;;;20.05;73.33;101304.31;5014208;28;101306;-27
2023/08/15 01:22:15;;;;;;;2.92;0.82;;;;;;;20.03;72.92;101307.19;5015383;28;97171;-26
2023/08/15 01:24:42;;;;;;;2.88;0.80;;;;;;;20.03;73.50;101311.84;5014392;28;96792;-26
2023/08/15 01:27:08;;;;;;;2.10;0.95;;;;;;;20.01;73.62;101313.84;5014125;28;101312;-27
2023/08/15 01:29:33;;;;;;;3.05;0.95;;;;;;;19.99;73.58;101319.50;5015444;28;97256;-26
2023/08/15 01:32:12;;;;;;;2.85;0.85;;;;;;;19.98;74.33;101308.66;5015653;28;96750;-26
2023/08/15 01:34:45;;;;;;;3.00;0.90;;;;;;;19.98;74.69;101323.28;5015859;28;96579;-28
2023/08/15 01:37:20;;;;;;;4.35;1.02;;;;;;;19.93;74.74;101317.34;5013807;28;99377;-27
2023/08/15 01:39:50;;;;;;;2.72;0.65;;;;;;;19.91;75.62;101314.72;5014234;28;100528;-28
2023/08/15 01:42:18;;;;;;;3.08;0.77;;;;;;;19.90;75.43;101315.75;5014171;28;96742;-27
2023/08/15 01:44:43;;;;;;;6.60;1.00;;;;;;;19.92;74.47;101308.19;5014030;28;96846;-27
2023/08/15 01:47:09;;;;;;;3.92;0.57;;;;;;;19.91;75.20;101309.22;5014842;28;97740;-26
2023/08/15 01:49:34;;;;;;;1.83;0.73;;;;;;;19.92;75.60;101312.84;5014974;28;99139;-26
2023/08/15 01:51:59;;;;;;;1.40;0.70;;;;;;;;;;5014792;28;96484;-26
2023/08/15 01:54:25;;;;;;;2.80;1.20;;;;;;;19.89;75.55;101324.13;5015298;28;96533;-28
2023/08/15 01:56:50;;;;;;;3.60;0.93;;;;;;;19.83;75.78;101321.94;5015184;28;97539;-27
2023/08/15 01:59:15;;;;;;;3.47;0.82;;;;;;;19.79;75.91;101310.38;5014812;28;97733;-26
2023/08/15 02:01:41;;;;;;;3.95;1.10;;;;;;;19.82;76.55;101309.22;5015352;28;96462;-27
2023/08/15 02:04:06;;;;;;;1.30;0.73;;;;;;;19.84;76.05;101324.56;5015654;28;96738;-26
2023/08/15 02:06:31;;;;;;;4.43;0.95;;;;;;;19.79;76.41;101321.38;5014937;28;97960;-26
2023/08/15 02:08:57;;;;;;;0.77;0.57;;;;;;;19.72;76.66;101315.56;5014055;28;97977;-26
2023/08/15 02:11:22;;;;;;;2.20;0.95;;;;;;;19.76;76.53;101315.28;5014726;28;96455;-27
2023/08/15 02:13:47;;;;;;;5.43;0.80;;;;;;;19.80;76.50;101325.84;5014999;28;96821;-26
2023/08/15 02:16:13;;;;;;;3.30;0.95;;;;;;;19.78;77.18;101316.88;5014823;28;97892;-26
2023/08/15 02:18:38;;;;;;;4.90;1.05;;;;;;;19.69;77.59;101315.00;5014702;28;97229;-26
2023/08/15 02:21:03;;;;;;;1.55;0.63;;;;;;;19.70;77.67;101322.22;5014735;28;96625;-27
2023/08/15 02:23:29;;;;;;;4.95;1.15;;;;;;;19.73;77.54;101331.06;5014726;28;96789;-27
2023/08/15 02:25:54;;;;;;;1.88;0.80;;;;;;;19.72;78.10;101337.56;5014783;28;97347;-27
2023/08/15 02:28:19;;;;;;;3.22;1.00;;;;;;;19.67;78.44;101319.75;5015095;28;97893;-27
2023/08/15 02:30:45;;;;;;;5.28;1.38;;;;;;;19.69;78.70;101335.09;5014703;28;96464;-27
2023/08/15 02:33:10;;;;;;;2.72;0.95;;;;;;;19.64;78.33;101331.88;5014694;28;96799;-27
2023/08/15 02:35:41;;;;;;;4.45;1.00;;;;;;;19.63;78.59;101343.88;5013776;28;99427;-27
2023/08/15 02:38:06;;;;;;;1.75;0.80;;;;;;;19.61;78.84;101339.53;5012795;28;101455;-27
2023/08/15 02:40:32;;;;;;;2.65;0.90;;;;;;;19.63;78.62;101359.50;5013276;28;96556;-28
2023/08/15 02:42:57;;;;;;;4.80;1.00;;;;;;;19.57;79.37;101355.44;5014641;28;98759;-27
2023/08/15 02:45:22;;;;;;;4.15;0.82;;;;;;;19.60;78.75;101365.28;5014547;28;97406;-26
2023/08/15 02:47:48;;;;;;;4.35;0.85;;;;;;;19.66;79.42;101382.09;5014373;28;97822;-26
2023/08/15 02:50:14;;;;;;;1.73;0.70;;;;;;;19.64;78.93;101377.72;5014543;28;96562;-27
2023/08/15 02:52:40;;;;;;;5.10;1.35;;;;;;;19.66;79.16;101373.84;5013602;28;96799;-27
2023/08/15 02:55:06;;;;;;;3.47;0.55;;;;;;;19.59;78.82;101364.38;5013930;28;99786;-27
2023/08/15 02:57:31;;;;;;;3.60;0.82;;;;;;;19.65;79.03;101365.72;5014573;28;97324;-26
2023/08/15 02:59:56;;;;;;;3.20;1.55;;;;;;;19.64;80.14;101366.72;5014155;28;96473;-26
2023/08/15 03:02:22;;;;;;;1.48;0.75;;;;;;;19.62;81.68;101369.63;5014985;28;96762;-26
2023/08/15 03:04:47;;;;;;;4.45;0.77;;;;;;;19.55;81.49;101373.94;5017679;28;97442;-27
2023/08/15 03:07:13;;;;;;;2.28;0.77;;;;;;;19.51;79.88;101373.34;5016888;28;97282;-27
2023/08/15 03:09:38;;;;;;;3.58;0.55;;;;;;;19.51;80.33;101370.59;5016535;28;96699;-27
2023/08/15 03:12:04;;;;;;;3.75;0.70;;;;;;;19.51;81.01;101372.47;5017679;28;96855;-27
2023/08/15 03:14:29;;;;;;;3.00;0.90;;;;;;;19.49;80.44;101369.88;5017702;28;98129;-27
2023/08/15 03:16:55;;;;;;;1.35;0.60;;;;;;;19.43;80.42;101361.34;5017826;28;99138;-27
2023/08/15 03:19:21;;;;;;;3.90;1.15;;;;;;;19.49;80.53;101369.88;5017846;28;96518;-26
2023/08/15 03:21:46;;;;;;;1.75;0.70;;;;;;;19.48;80.59;101375.53;5017847;28;96752;-27
2023/08/15 03:24:12;;;;;;;4.75;0.80;;;;;;;19.45;80.94;101381.28;5017084;28;97102;-27
2023/08/15 03:26:37;;;;;;;5.45;1.10;;;;;;;19.42;82.11;101374.19;5017229;28;97867;-26
2023/08/15 03:29:03;;;;;;;4.05;0.93;;;;;;;19.42;80.45;101376.06;5017892;28;97645;-27
2023/08/15 03:31:28;;;;;;;2.03;0.90;;;;;;;19.41;80.53;101377.94;5017762;28;97081;-27
2023/08/15 03:33:53;;;;;;;2.13;0.90;;;;;;;19.37;80.91;101383.84;5017019;28;98808;-26
2023/08/15 03:36:19;;;;;;;2.83;0.95;;;;;;;19.33;80.91;101369.53;5017358;28;97736;-27
2023/08/15 03:38:44;;;;;;;3.35;0.90;;;;;;;19.27;81.03;101375.56;5017156;28;96629;-27
2023/08/15 03:41:10;;;;;;;5.63;0.70;;;;;;;19.30;81.57;101383.53;5017434;28;96860;-27
2023/08/15 03:43:36;;;;;;;2.60;0.90;;;;;;;19.28;81.83;101386.44;5017168;28;97856;-26
2023/08/15 03:46:03;;;;;;;3.65;0.95;;;;;;;19.24;81.64;101387.72;5015558;28;101029;-26
2023/08/15 03:48:31;;;;;;;3.60;1.13;;;;;;;19.29;81.25;101401.03;4998635;28;96661;-26
2023/08/15 03:50:58;;;;;;;3.78;1.20;;;;;;;19.24;81.68;101395.94;5017247;28;96782;-27
2023/08/15 03:53:24;;;;;;;5.28;1.02;;;;;;;19.21;82.27;101401.72;5015372;28;101146;-28
2023/08/15 03:55:52;;;;;;;6.88;0.93;;;;;;;19.15;82.12;101394.03;5015343;28;100892;-26
2023/08/15 03:58:18;;;;;;;4.78;1.20;;;;;;;19.22;81.68;101408.09;5015690;28;96579;-27
2023/08/15 04:00:45;;;;;;;1.95;0.80;;;;;;;19.19;81.70;101405.63;5015728;28;96922;-26
2023/08/15 04:03:10;;;;;;;1.60;0.80;;;;;;;19.15;81.97;101399.53;5015260;28;100082;-27
2023/08/15 04:05:36;;;;;;;3.53;1.00;;;;;;;19.15;82.00;101402.25;5016978;28;99554;-26
2023/08/15 04:08:02;;;;;;;2.97;0.90;;;;;;;19.14;83.44;101397.78;5016527;28;96853;-27
2023/08/15 04:10:28;;;;;;;3.15;0.95;;;;;;;19.10;82.57;101393.56;5015685;28;96906;-27
2023/08/15 04:12:54;;;;;;;3.28;0.95;;;;;;;19.10;82.73;101397.19;5015951;28;97920;-27
2023/08/15 04:15:19;;;;;;;4.88;1.00;;;;;;;19.12;82.18;101398.94;5015087;28;100908;-27
2023/08/15 04:17:45;;;;;;;4.75;0.82;;;;;;;19.14;83.02;101391.41;5016775;28;96526;-27
2023/08/15 04:20:12;;;;;;;4.28;0.90;;;;;;;19.09;81.96;101378.09;5016753;28;96805;-27
2023/08/15 04:22:38;;;;;;;3.40;1.40;;;;;;;19.10;81.90;101380.69;5014861;28;101002;-26
2023/08/15 04:25:06;;;;;;;4.45;1.50;;;;;;;19.09;81.91;101378.09;5014948;28;100636;-26
2023/08/15 04:27:32;;;;;;;3.33;0.88;;;;;;;19.12;82.70;101386.06;5016717;28;96589;-27
2023/08/15 04:29:57;;;;;;;4.22;1.30;;;;;;;19.12;83.29;101385.22;5017229;28;96776;-27
2023/08/15 04:32:23;;;;;;;3.60;1.17;;;;;;;19.02;82.58;101379.63;5016049;28;99257;-26
2023/08/15 04:34:48;;;;;;;4.40;0.95;;;;;;;19.08;82.12;101390.94;5016451;28;97310;-26
2023/08/15 04:37:13;;;;;;;2.78;1.02;;;;;;;19.04;82.92;101386.75;5015779;28;97346;-28
2023/08/15 04:39:39;;;;;;;2.47;0.80;;;;;;;19.01;83.14;101387.00;5016366;28;96700;-26
2023/08/15 04:42:04;;;;;;;1.73;0.85;;;;;;;19.01;83.78;101392.50;5016056;28;99508;-27
2023/08/15 04:44:30;;;;;;;2.70;1.05;;;;;;;19.01;83.10;101392.50;5015889;28;99166;-27
2023/08/15 04:46:55;;;;;;;2.95;1.15;;;;;;;18.92;83.48;101382.34;5016643;28;96480;-28
2023/08/15 04:49:20;;;;;;;2.05;0.82;;;;;;;18.94;83.28;101395.94;5016478;28;96854;-26
2023/08/15 04:51:46;;;;;;;3.53;1.10;;;;;;;18.95;83.05;101392.16;5016189;28;97987;-26
2023/08/15 04:54:11;;;;;;;3.40;1.00;;;;;;;18.97;83.16;101403.88;5016093;28;97266;-26
2023/08/15 04:56:36;;;;;;;2.15;1.00;;;;;;;18.98;83.06;101406.50;5016395;28;96606;-27
2023/08/15 04:59:02;;;;;;;2.75;1.20;;;;;;;19.00;83.11;101415.50;5016178;28;96818;-26
2023/08/15 05:01:27;;;;;;;1.10;0.70;;;;;;;18.95;82.95;101406.78;5015608;28;97687;-27
2023/08/15 05:03:53;;;;;;;2.75;0.88;;;;;;;18.96;82.94;101410.41;5015617;28;99088;-26
2023/08/15 05:06:19;;;;;;;2.65;1.05;;;;;;;18.99;83.14;101421.97;5014901;28;96583;-28
2023/08/15 05:08:44;;;;;;;8.55;1.33;;;;;;;18.97;83.18;101421.22;5015107;28;100142;-26
2023/08/15 05:11:10;;;;;;;5.95;1.33;;;;;;;19.00;83.52;101429.22;5015771;28;97946;-27
2023/08/15 05:13:35;;;;;;;4.32;1.10;;;;;;;19.01;84.06;101428.19;5015485;28;99289;-27
2023/08/15 05:16:01;;;;;;;4.60;0.90;;;;;;;19.06;83.07;101438.78;5015957;28;96709;-26
2023/08/15 05:18:26;;;;;;;2.45;0.80;;;;;;;19.08;83.02;101436.78;5016176;28;96866;-26
2023/08/15 05:20:52;;;;;;;2.53;0.93;;;;;;;19.10;83.27;101430.13;5007073;28;97463;-28
2023/08/15 05:23:17;;;;;;;3.90;0.80;;;;;;;19.14;83.92;101441.72;5005038;28;101400;-27
2023/08/15 05:25:43;;;;;;;3.95;1.17;;;;;;;19.14;83.34;101444.47;5011752;28;96877;-27
2023/08/15 05:28:12;;;;;;;3.97;0.95;;;;;;;19.14;83.70;101446.34;5011394;28;97072;-30
2023/08/15 05:30:38;;;;;;;7.30;1.13;;;;;;;19.15;83.97;101454.44;5012074;28;100976;-26
2023/08/15 05:33:04;;;;;;;5.75;1.45;;;;;;;19.16;82.82;101461.66;5013603;28;101036;-31
2023/08/15 05:35:33;;;;;;;2.45;0.90;;;;;;;19.16;84.84;101464.41;5015406;28;96587;-27
2023/08/15 05:37:58;;;;;;;1.85;0.93;;;;;;;19.07;83.87;101457.88;5014104;28;98057;-32
2023/08/15 05:40:23;;;;;;;2.90;1.10;;;;;;;19.16;83.70;101466.28;5012883;28;97815;-27
2023/08/15 05:42:49;;;;;;;2.80;1.60;;;;;;;19.18;83.70;101464.28;5012049;28;97803;-27
2023/08/15 05:45:15;;;;;;;5.13;1.52;;;;;;;19.15;83.47;101451.69;5011372;28;96955;-27
2023/08/15 05:47:40;;;;;;;5.93;1.40;;;;;;;19.23;82.83;101457.38;5007012;28;96936;-28
2023/08/15 05:50:06;;;;;;;1.40;0.80;;;;;;;19.25;82.61;101454.50;5012313;28;98994;-28
2023/08/15 05:52:32;;;;;;;3.38;1.05;;;;;;;19.28;83.24;101456.97;5011755;28;99716;-27
2023/08/15 05:54:57;;;;;;;4.10;1.50;;;;;;;19.26;83.38;101462.63;5011899;28;96653;-30
2023/08/15 05:57:23;;;;;;;0.95;0.60;;;;;;;19.28;83.17;101456.97;5013514;28;96792;-27
2023/08/15 05:59:48;;;;;;;5.25;1.45;;;;;;;19.28;83.32;101459.72;5013394;28;97393;-27
2023/08/15 06:02:14;;;;;;;2.40;0.98;;;;;;;19.27;83.42;101466.22;5013752;28;97215;-29
2023/08/15 06:04:40;;;;;;;3.80;0.90;;;;;;;19.29;83.09;101464.22;5013430;28;96668;-27
2023/08/15 06:07:06;;;;;;;2.40;0.75;;;;;;;19.27;83.40;101468.97;5012854;28;98084;-34
2023/08/15 06:09:31;;;;;;;2.88;1.02;;;;;;;19.30;84.08;101471.44;5009270;28;101288;-32
2023/08/15 06:11:57;;;;;;;8.90;1.30;;;;;;;19.32;83.49;101474.94;5009075;28;99665;-33
2023/08/15 06:14:22;;;;;;;9.18;1.48;;;;;;;19.35;83.05;101474.66;5010298;28;97044;-34
2023/08/15 06:16:48;;;;;;;7.93;1.25;;;;;;;19.36;83.44;101486.53;5010965;28;97046;-30
2023/08/15 06:19:14;;;;;;;3.72;1.00;;;;;;;19.41;82.58;101493.34;5009054;28;100970;-34
2023/08/15 06:21:42;;;;;;;4.50;1.40;;;;;;;19.45;82.70;101497.56;5009778;28;101531;-27
2023/08/15 06:24:09;;;;;;;3.67;1.23;;;;;;;19.43;83.12;101498.72;5014776;28;96481;-26
2023/08/15 06:26:35;;;;;;;3.10;1.20;;;;;;;19.40;82.89;101509.97;5013486;28;96865;-27
2023/08/15 06:29:00;;;;;;;4.40;1.40;;;;;;;19.42;83.94;101511.56;5014463;28;99663;-27
2023/08/15 06:31:26;;;;;;;5.10;1.58;;;;;;;19.44;83.55;101514.19;5015226;28;97265;-26
2023/08/15 06:33:51;;;;;;;5.20;1.50;;;;;;;19.58;82.49;101521.22;5014791;28;96489;-27
2023/08/15 06:36:17;;;;;;;4.82;1.40;;;;;;;19.77;81.91;101524.06;5014442;28;96837;-28
2023/08/15 06:38:42;;;;;;;2.92;1.30;;;;;;;19.91;82.44;101523.69;5013935;28;98072;-26
2023/08/15 06:41:07;;;;;;;5.05;1.42;;;;;;;20.07;81.18;101522.28;5014422;28;98263;-27
2023/08/15 06:43:33;;;;;;;4.60;1.33;;;;;;;20.21;80.64;101524.66;5014625;28;96600;-27
2023/08/15 06:45:59;;;;;;;8.90;1.90;;;;;;;20.32;80.89;101526.44;5004629;28;96812;-27
2023/08/15 06:48:24;;;;;;;3.97;1.30;;;;;;;20.46;80.25;101527.91;4994987;28;99958;-27
2023/08/15 06:50:50;;;;;;;7.07;1.35;;;;;;;20.65;79.70;101538.97;4993927;28;97792;-27
2023/08/15 06:53:15;;;;;;;6.38;1.40;;;;;;;20.78;78.75;101525.81;4997201;28;96695;-27
2023/08/15 06:55:41;;;;;;;2.88;1.20;;;;;;;20.83;78.90;101530.00;5015149;28;96738;-27
2023/08/15 06:58:06;;;;;;;4.20;1.77;;;;;;;20.93;78.40;101537.25;4995950;28;98544;-27
2023/08/15 07:00:31;;;;;;;4.93;1.48;;;;;;;21.00;78.85;101534.81;4994489;28;97316;-27
2023/08/15 07:02:57;;;;;;;3.15;1.45;;;;;;;21.08;77.35;101523.91;5000267;28;96751;-26
2023/08/15 07:05:22;;;;;;;5.93;1.63;;;;;;;21.12;77.40;101530.88;4994131;28;96944;-28
2023/08/15 07:07:47;;;;;;;4.60;1.38;;;;;;;21.20;77.28;101530.13;4993655;28;97391;-28
2023/08/15 07:10:13;;;;;;;5.45;1.45;;;;;;;21.29;77.46;101544.94;4994054;28;99079;-26
2023/08/15 07:12:38;;;;;;;4.40;1.48;;;;;;;21.23;77.02;101549.13;4994595;28;96566;-26
2023/08/15 07:15:04;;;;;;;5.07;2.13;;;;;;;21.31;77.30;101548.38;5012223;28;96816;-26
2023/08/15 07:17:29;;;;;;;2.80;1.20;;;;;;;21.23;76.96;101540.00;5013800;28;98836;-26
2023/08/15 07:19:55;;;;;;;7.30;1.60;;;;;;;21.27;77.31;101538.69;5014134;28;99205;-26
2023/08/15 07:22:21;;;;;;;7.32;2.05;;;;;;;21.19;76.96;101537.53;5012734;28;96672;-27
2023/08/15 07:24:46;;;;;;;6.88;1.83;;;;;;;21.16;77.43;101543.31;5014028;28;96929;-27
2023/08/15 07:27:11;;;;;;;3.75;1.55;;;;;;;21.10;77.10;101549.44;5012973;28;97439;-27
2023/08/15 07:29:37;;;;;;;4.53;1.52;;;;;;;21.08;77.65;101545.94;4993626;28;99390;-26
2023/08/15 07:32:02;;;;;;;4.50;1.75;;;;;;;21.09;77.86;101553.19;4993991;28;96753;-28
2023/08/15 07:34:28;;;;;;;5.45;1.33;;;;;;;21.07;77.41;101555.25;5012345;28;96817;-26
2023/08/15 07:36:53;;;;;;;3.15;1.23;;;;;;;21.06;77.02;101558.13;5013798;28;97305;-26
2023/08/15 07:39:18;;;;;;;7.38;1.90;;;;;;;21.01;77.61;101553.06;5013482;28;97248;-26
2023/08/15 07:41:44;;;;;;;4.32;1.75;;;;;;;20.94;77.87;101557.41;5006843;28;96609;-26
2023/08/15 07:44:09;;;;;;;3.88;1.70;;;;;;;20.98;78.22;101567.13;4994081;28;96809;-26
2023/08/15 07:46:35;;;;;;;3.28;1.42;;;;;;;21.02;77.61;101567.69;4993707;28;97388;-27
2023/08/15 07:49:00;;;;;;;1.67;1.27;;;;;;;20.98;77.65;101572.63;4995194;28;97206;-27
2023/08/15 07:51:25;;;;;;;3.65;1.60;;;;;;;20.96;77.89;101555.38;4996925;28;96584;-26
2023/08/15 07:53:51;;;;;;;3.97;1.83;;;;;;;20.96;77.72;101564.50;5004207;28;96846;-26
2023/08/15 07:56:16;;;;;;;4.88;1.48;;;;;;;20.93;78.14;101564.81;5004599;28;97997;-27
2023/08/15 07:58:42;;;;;;;6.32;1.67;;;;;;;20.95;78.50;101576.56;5016733;28;99114;-26
2023/08/15 08:01:08;;;;;;;3.65;1.55;;;;;;;20.91;78.39;101576.97;5017579;28;96430;-28
2023/08/15 08:03:35;;;;;;;5.20;1.75;;;;;;;20.87;78.20;101572.78;5016809;28;96819;-26
2023/08/15 08:06:00;;;;;;;2.97;1.30;;;;;;;20.89;78.32;101579.88;5015394;28;100908;-27
2023/08/15 08:08:26;;;;;;;6.50;1.83;;;;;;;20.95;78.36;101581.16;5016540;28;98283;-27
2023/08/15 08:10:52;;;;;;;7.15;1.65;;;;;;;20.95;78.38;101583.91;5015547;28;96583;-26
2023/08/15 08:13:18;;;;;;;6.03;2.30;;;;;;;21.03;78.79;101586.84;5017120;28;96888;-27
2023/08/15 08:15:44;;;;;;;4.72;1.75;;;;;;;20.98;78.37;101584.53;5014719;28;100597;-26
2023/08/15 08:18:09;;;;;;;3.17;1.95;;;;;;;20.92;78.42;101578.72;5016632;28;97930;-26
2023/08/15 08:20:34;;;;;;;2.67;1.60;;;;;;;20.94;78.34;101591.31;5016619;28;96514;-26
2023/08/15 08:23:00;;;;;;;3.22;1.42;;;;;;;20.91;78.45;101590.75;5016911;28;96775;-26
2023/08/15 08:25:26;;;;;;;5.53;2.08;;;;;;;20.87;78.37;101581.91;5016385;28;97671;-26
2023/08/15 08:27:52;;;;;;;3.28;1.48;;;;;;;20.90;78.87;101591.75;5014576;28;100733;-27
2023/08/15 08:30:20;;;;;;;4.30;1.83;;;;;;;20.84;79.27;101597.84;5016887;28;96555;-26
2023/08/15 08:32:45;;;;;;;5.05;2.13;;;;;;;20.83;78.99;101607.09;5015682;28;96911;-26
2023/08/15 08:35:15;;;;;;;3.60;1.67;;;;;;;20.86;79.25;101598.59;5016215;28;99694;-26
2023/08/15 08:37:47;;;;;;;5.43;1.92;;;;;;;20.88;79.09;101602.94;5014276;28;100922;-27
2023/08/15 08:40:13;;;;;;;4.50;1.67;;;;;;;20.91;79.06;101604.53;5010439;28;96838;-26
2023/08/15 08:42:42;;;;;;;7.30;1.83;;;;;;;20.84;79.05;101601.47;4996401;28;96739;-27
2023/08/15 08:45:11;;;;;;;5.97;1.60;;;;;;;20.83;79.01;101610.72;4996018;28;98077;-27
2023/08/15 08:47:41;;;;;;;3.38;1.42;;;;;;;20.78;78.81;101602.91;4994632;28;101356;-27
2023/08/15 08:50:09;;;;;;;2.63;1.25;;;;;;;20.83;78.43;101596.09;4996627;28;96550;-27
2023/08/15 08:52:38;;;;;;;3.70;1.38;;;;;;;20.87;78.00;101600.31;4994989;28;96912;-26
2023/08/15 08:55:05;;;;;;;4.00;1.38;;;;;;;20.95;77.71;101617.88;4994679;28;100833;-26
2023/08/15 08:57:30;;;;;;;5.18;1.40;;;;;;;20.88;77.66;101602.03;4994788;28;100945;-26
2023/08/15 08:59:58;;;;;;;4.57;1.55;;;;;;;20.93;78.03;101621.78;4996099;28;96688;-26
2023/08/15 09:02:23;;;;;;;6.03;1.58;;;;;;;20.89;78.42;101618.44;4994768;28;96889;-27
2023/08/15 09:04:49;;;;;;;6.05;1.77;;;;;;;20.91;77.82;101612.78;4995181;28;99367;-26
2023/08/15 09:07:17;;;;;;;2.08;1.17;;;;;;;20.98;78.03;101627.72;4994879;28;99509;-26
2023/08/15 09:09:43;;;;;;;4.03;1.40;;;;;;;21.01;78.02;101619.16;4996401;28;96648;-26
2023/08/15 09:12:08;;;;;;;4.50;1.77;;;;;;;21.05;78.17;101620.63;4996056;28;97066;-26
2023/08/15 09:14:40;;;;;;;4.18;1.40;;;;;;;21.15;77.82;101620.63;4994253;28;98309;-26
2023/08/15 09:17:05;;;;;;;4.88;0.98;;;;;;;21.38;76.90;101622.09;4995833;28;98070;-26
2023/08/15 09:19:39;;;;;;;1.75;0.82;;;;;;;21.59;75.96;101623.81;4995988;28;96516;-26
2023/08/15 09:22:05;;;;;;;2.45;0.80;;;;;;;21.54;75.69;101629.78;4994972;28;96789;-27
2023/08/15 09:24:31;;;;;;;2.88;1.08;;;;;;;21.52;75.40;101618.00;4993655;28;100842;-26
2023/08/15 09:26:56;;;;;;;5.38;1.20;;;;;;;21.51;75.93;101615.44;4995345;28;97804;-26
2023/08/15 09:29:21;;;;;;;2.92;1.00;;;;;;;21.44;75.74;101620.66;4995469;28;96476;-27
2023/08/15 09:31:48;;;;;;;3.28;1.05;;;;;;;21.27;76.67;101621.38;4995657;28;96834;-26
2023/08/15 09:34:14;;;;;;;1.80;0.80;;;;;;;21.26;77.22;101637.03;4993943;28;101392;-27
2023/08/15 09:36:40;;;;;;;2.22;0.77;;;;;;;21.23;77.82;101641.94;4995354;28;97320;-27
2023/08/15 09:39:08;;;;;;;1.95;1.08;;;;;;;21.28;77.32;101640.50;4995423;28;96599;-26
2023/08/15 09:41:34;;;;;;;2.05;0.80;;;;;;;21.33;76.92;101631.78;4994127;28;96904;-27
2023/08/15 09:43:59;;;;;;;1.15;0.70;;;;;;;21.39;76.97;101645.00;4995134;28;99124;-27
2023/08/15 09:46:25;;;;;;;2.55;0.93;;;;;;;21.43;76.46;101643.72;4995690;28;97480;-26
2023/08/15 09:48:51;;;;;;;1.17;0.68;;;;;;;21.54;76.09;101649.06;4995383;28;96666;-27
2023/08/15 09:51:18;;;;;;;1.08;0.60;;;;;;;21.59;75.66;101652.25;4995379;28;96798;-26
2023/08/15 09:53:45;;;;;;;1.73;0.73;;;;;;;21.67;74.87;101667.22;4994618;28;99516;-26
2023/08/15 09:56:11;;;;;;;4.85;1.05;;;;;;;21.59;74.85;101673.44;4993272;28;101022;-27
2023/08/15 09:58:38;;;;;;;1.55;0.73;;;;;;;21.52;74.83;101670.41;4995343;28;96612;-26
2023/08/15 10:01:06;;;;;;;1.42;0.60;;;;;;;21.42;74.77;101669.53;4993882;28;96841;-26
2023/08/15 10:03:38;;;;;;;3.50;0.65;;;;;;;21.36;74.97;101661.84;4994796;28;99481;-26
2023/08/15 10:06:05;;;;;;;1.92;0.60;;;;;;;21.37;75.71;101671.84;4993528;28;101104;-26
2023/08/15 10:08:31;;;;;;;2.20;0.80;;;;;;;21.33;75.76;101670.38;4993277;28;96580;-27
2023/08/15 10:10:58;;;;;;;0.75;0.52;;;;;;;21.35;75.61;101677.47;4995043;28;96731;-26
2023/08/15 10:13:35;;;;;;;1.63;0.55;;;;;;;21.36;75.65;101681.13;4993188;28;101135;-26
2023/08/15 10:16:03;;;;;;;0.77;0.40;;;;;;;21.36;75.86;101686.63;4993501;28;101603;-27
2023/08/15 10:18:30;;;;;;;1.73;0.45;;;;;;;21.29;76.12;101688.22;4994592;28;96464;-27
2023/08/15 10:20:56;;;;;;;0.45;0.30;;;;;;;21.24;76.12;101685.00;4993401;28;96873;-27
2023/08/15 10:23:35;;;;;;;0.75;0.35;;;;;;;21.23;76.35;101697.94;4994690;28;98054;-26
2023/08/15 10:26:01;;;;;;;0.47;0.25;;;;;;;21.28;76.05;101689.22;4993241;28;100979;-26
2023/08/15 10:28:33;;;;;;;1.55;0.30;;;;;;;21.38;76.31;101696.50;4993583;28;96756;-26
2023/08/15 10:30:59;;;;;;;1.00;0.43;;;;;;;21.41;76.14;101692.63;4994728;28;96856;-27
2023/08/15 10:33:28;;;;;;;0.52;0.30;;;;;;;21.53;75.89;101705.25;4993134;28;99061;-27
2023/08/15 10:35:54;;;;;;;0.82;0.40;;;;;;;21.60;76.61;101706.41;4993411;28;100861;-26
2023/08/15 10:38:30;;;;;;;0.38;0.13;;;;;;;21.63;76.28;101708.84;4994573;28;96901;-26
2023/08/15 10:41:07;;;;;;;0.40;0.40;;;;;;;21.65;76.34;101713.38;4993556;28;96805;-26
2023/08/15 10:43:34;;;;;;;0.93;0.25;;;;;;;21.72;75.85;101709.88;4994193;28;98120;-26
2023/08/15 10:46:02;;;;;;;0.30;0.25;;;;;;;21.91;75.67;101705.38;4992854;28;100910;-26
2023/08/15 10:48:40;;;;;;;0.80;0.50;;;;;;;22.19;74.33;101711.81;4995049;28;96535;-26
2023/08/15 10:51:24;;;;;;;0.50;0.50;;;;;;;22.35;74.36;101716.75;4993192;28;96831;-26
2023/08/15 10:53:55;;;;;;;1.40;0.40;;;;;;;22.25;74.12;101708.50;4992777;28;100958;-26
2023/08/15 10:56:25;;;;;;;0.50;0.47;;;;;;;22.20;73.73;101708.06;4994188;28;98285;-27
2023/08/15 10:58:51;;;;;;;0.63;0.30;;;;;;;22.25;73.42;101716.78;4994404;28;96484;-26
2023/08/15 11:01:30;;;;;;;0.45;0.30;;;;;;;22.27;73.81;101715.63;4993424;28;96849;-27
2023/08/15 11:03:56;;;;;;;0.32;0.20;;;;;;;22.37;72.84;101707.31;4992697;28;100680;-26
2023/08/15 11:06:23;;;;;;;0.52;0.28;;;;;;;22.48;72.30;101715.41;4992734;28;99101;-26
2023/08/15 11:08:52;;;;;;;2.28;0.50;;;;;;;22.64;72.47;101720.28;4992174;28;96497;-27
2023/08/15 11:11:19;;;;;;;0.10;0.10;;;;;;;22.66;71.61;101714.59;4993529;28;96685;-26
2023/08/15 11:13:47;;;;;;;0.20;0.20;;;;;;;22.80;71.53;101719.63;4994265;28;97995;-27
2023/08/15 11:16:17;;;;;;;0.45;0.22;;;;;;;22.90;71.71;101714.91;4992613;28;100901;-27
2023/08/15 11:18:43;;;;;;;0.98;0.20;;;;;;;22.87;71.23;101722.63;4992889;28;96766;-27
2023/08/15 11:21:11;;;;;;;0.25;0.25;;;;;;;23.03;70.86;101719.25;4992924;28;96827;-26